Time;durP1;ratioP1;P1;durP2;ratioP2;P2;SDS_P1;SDS_P2;PMS_P1;PMS_P2;Temp;Humidity;BMP_temperature;BMP_pressure;BME280_temperature;BME280_humidity;BME280_pressure;Samples;Min_cycle;Max_cycle;Signal;HPM_P1;HPM_P2
2022/03/16 00:00:37;;;;;;;29.30;18.03;;;;;;;;;;760329;184;642610;-87
2022/03/16 00:03:03;;;;;;;32.22;18.98;;;;;;;;;;771256;178;916230;-62
2022/03/16 00:05:29;;;;;;;35.93;22.43;;;;;;;;;;755064;182;920056;-62
2022/03/16 00:07:55;;;;;;;29.43;20.50;;;;;;;;;;752623;185;915544;-61
2022/03/16 00:10:20;;;;;;;24.83;19.20;;;;;;;;;;763230;180;920623;-64
2022/03/16 00:12:46;;;;;;;26.60;18.30;;;;;;;;;;764966;176;923340;-61
2022/03/16 00:15:12;;;;;;;26.47;16.47;;;;;;;;;;770679;179;919385;-61
2022/03/16 00:17:38;;;;;;;27.80;18.30;;;;;;;;;;768601;180;919832;-61
2022/03/16 00:20:04;;;;;;;24.27;16.53;;;;;;;;;;767015;179;920877;-63
2022/03/16 00:22:30;;;;;;;24.60;17.80;;;;;;;;;;764955;181;919811;-62
2022/03/16 00:24:56;;;;;;;25.70;16.00;;;;;;;;;;765607;181;919420;-62
2022/03/16 00:27:21;;;;;;;22.67;16.27;;;;;;;;;;758765;181;916253;-62
2022/03/16 00:29:47;;;;;;;25.00;17.53;;;;;;;;;;766250;180;915366;-60
2022/03/16 00:35:06;;;;;;;24.60;15.33;;;;;;;;;;716266;177;628864;-87
2022/03/16 00:37:32;;;;;;;26.00;17.70;;;;;;;;;;762571;181;639224;-87
2022/03/16 00:39:58;;;;;;;26.77;17.67;;;;;;;;;;762592;181;623775;-87
2022/03/16 00:42:24;;;;;;;29.00;19.20;;;;;;;;;;764190;180;625138;-89
2022/03/16 00:44:49;;;;;;;21.87;16.33;;;;;;;;;;765882;183;684983;-88
2022/03/16 00:47:15;;;;;;;19.33;13.70;;;;;;;;;;767035;182;634244;-89
2022/03/16 00:49:41;;;;;;;24.10;17.63;;;;;;;;;;767033;179;644054;-89
2022/03/16 00:52:07;;;;;;;26.17;18.13;;;;;;;;;;771089;180;625976;-90
2022/03/16 00:54:33;;;;;;;31.13;19.27;;;;;;;;;;766078;181;633445;-88
2022/03/16 00:56:59;;;;;;;23.92;17.48;;;;;;;;;;780041;176;919255;-60
2022/03/16 00:59:25;;;;;;;24.23;16.73;;;;;;;;;;780767;179;920092;-60
2022/03/16 01:01:51;;;;;;;31.33;16.43;;;;;;;;;;770120;179;919765;-60
2022/03/16 01:04:17;;;;;;;27.20;19.20;;;;;;;;;;774021;179;927565;-59
2022/03/16 01:06:42;;;;;;;29.33;18.90;;;;;;;;;;777639;179;919435;-59
2022/03/16 01:09:08;;;;;;;29.10;18.60;;;;;;;;;;775895;177;935604;-60
2022/03/16 01:11:34;;;;;;;30.83;20.57;;;;;;;;;;772008;179;919512;-59
2022/03/16 01:14:00;;;;;;;25.20;18.90;;;;;;;;;;775684;177;920059;-59
2022/03/16 01:16:26;;;;;;;26.63;17.93;;;;;;;;;;781207;177;920943;-60
2022/03/16 01:18:52;;;;;;;25.00;16.97;;;;;;;;;;767349;179;919499;-60
2022/03/16 01:21:17;;;;;;;30.03;18.53;;;;;;;;;;770740;180;919916;-59
2022/03/16 01:23:43;;;;;;;24.97;18.23;;;;;;;;;;778934;180;918896;-59
2022/03/16 01:26:09;;;;;;;23.40;16.50;;;;;;;;;;776032;179;919158;-60
2022/03/16 01:28:35;;;;;;;24.87;17.27;;;;;;;;;;778521;179;920232;-61
2022/03/16 01:31:01;;;;;;;23.40;17.87;;;;;;;;;;776489;180;920334;-60
2022/03/16 01:33:27;;;;;;;26.33;17.80;;;;;;;;;;766283;180;921186;-61
2022/03/16 01:35:53;;;;;;;28.25;18.80;;;;;;;;;;773233;179;919517;-60
2022/03/16 01:38:18;;;;;;;28.23;18.47;;;;;;;;;;770428;179;919007;-60
2022/03/16 01:40:45;;;;;;;38.07;20.67;;;;;;;;;;771093;180;919389;-59
2022/03/16 01:43:10;;;;;;;26.27;18.97;;;;;;;;;;767324;180;917310;-59
2022/03/16 01:45:36;;;;;;;28.40;19.73;;;;;;;;;;771634;180;920644;-63
2022/03/16 01:48:02;;;;;;;25.50;16.30;;;;;;;;;;775711;179;914619;-60
2022/03/16 01:50:28;;;;;;;35.00;20.30;;;;;;;;;;780013;177;919274;-61
2022/03/16 01:52:53;;;;;;;26.70;17.50;;;;;;;;;;766686;179;916451;-60
2022/03/16 01:55:19;;;;;;;28.30;18.47;;;;;;;;;;774277;179;1018871;-60
2022/03/16 01:57:45;;;;;;;27.43;20.80;;;;;;;;;;774372;179;914930;-60
2022/03/16 02:00:11;;;;;;;27.27;20.23;;;;;;;;;;769481;179;917804;-60
2022/03/16 02:02:37;;;;;;;29.77;20.10;;;;;;;;;;775017;179;915067;-60
2022/03/16 02:05:03;;;;;;;27.07;19.23;;;;;;;;;;771259;179;920604;-60
2022/03/16 02:07:29;;;;;;;31.10;20.13;;;;;;;;;;779494;176;909435;-59
2022/03/16 02:09:55;;;;;;;28.03;18.93;;;;;;;;;;768891;179;917304;-59
2022/03/16 02:12:21;;;;;;;33.30;20.00;;;;;;;;;;774757;179;909139;-60
2022/03/16 02:14:46;;;;;;;28.40;20.90;;;;;;;;;;776671;175;919828;-59
2022/03/16 02:17:12;;;;;;;35.40;23.50;;;;;;;;;;772339;180;922975;-60
2022/03/16 02:19:38;;;;;;;37.60;22.97;;;;;;;;;;779450;178;919632;-60
2022/03/16 02:22:05;;;;;;;33.33;21.30;;;;;;;;;;771204;180;919779;-60
2022/03/16 02:24:30;;;;;;;31.40;20.52;;;;;;;;;;774250;180;919210;-60
2022/03/16 02:26:56;;;;;;;32.53;21.60;;;;;;;;;;773922;179;920240;-60
2022/03/16 02:29:22;;;;;;;31.50;21.57;;;;;;;;;;771500;180;919878;-60
2022/03/16 02:31:48;;;;;;;32.03;20.27;;;;;;;;;;768410;180;920071;-60
2022/03/16 02:34:13;;;;;;;40.27;20.87;;;;;;;;;;770968;180;920191;-60
2022/03/16 02:36:39;;;;;;;34.50;23.60;;;;;;;;;;767472;182;919684;-60
2022/03/16 02:39:05;;;;;;;34.57;22.10;;;;;;;;;;771429;180;919780;-59
2022/03/16 02:41:31;;;;;;;31.23;21.17;;;;;;;;;;770854;177;920329;-60
2022/03/16 02:43:57;;;;;;;28.13;19.93;;;;;;;;;;785948;177;918147;-60
2022/03/16 02:46:23;;;;;;;33.97;21.13;;;;;;;;;;771474;179;940100;-59
2022/03/16 02:48:49;;;;;;;29.97;21.17;;;;;;;;;;775571;179;918799;-59
2022/03/16 02:51:14;;;;;;;30.00;20.40;;;;;;;;;;778764;179;1021945;-59
2022/03/16 02:53:40;;;;;;;31.83;22.07;;;;;;;;;;773948;179;919187;-59
2022/03/16 02:56:07;;;;;;;33.67;23.30;;;;;;;;;;771574;179;919668;-59
2022/03/16 02:58:32;;;;;;;36.05;22.75;;;;;;;;;;777193;179;921634;-59
2022/03/16 03:00:58;;;;;;;35.43;24.83;;;;;;;;;;773101;179;919493;-60
2022/03/16 03:03:24;;;;;;;34.43;22.60;;;;;;;;;;770850;179;919007;-59
2022/03/16 03:05:50;;;;;;;34.53;23.83;;;;;;;;;;776984;179;919448;-60
2022/03/16 03:08:16;;;;;;;30.47;22.30;;;;;;;;;;773283;180;918243;-60
2022/03/16 03:10:42;;;;;;;33.40;23.63;;;;;;;;;;779148;180;919697;-60
2022/03/16 03:13:07;;;;;;;37.22;25.20;;;;;;;;;;771014;179;618516;-60
2022/03/16 03:15:33;;;;;;;39.80;23.77;;;;;;;;;;779830;180;640313;-60
2022/03/16 03:17:59;;;;;;;34.93;22.40;;;;;;;;;;771335;179;919318;-60
2022/03/16 03:20:25;;;;;;;30.87;23.23;;;;;;;;;;769860;179;919385;-61
2022/03/16 03:22:51;;;;;;;33.10;23.03;;;;;;;;;;772809;179;919360;-60
2022/03/16 03:25:17;;;;;;;37.77;25.10;;;;;;;;;;767291;180;1020968;-60
2022/03/16 03:27:42;;;;;;;33.05;22.20;;;;;;;;;;770827;179;919722;-60
2022/03/16 03:30:08;;;;;;;31.17;20.90;;;;;;;;;;770870;180;919414;-60
2022/03/16 03:32:34;;;;;;;30.73;22.37;;;;;;;;;;776213;180;919261;-60
2022/03/16 03:35:00;;;;;;;39.23;23.80;;;;;;;;;;769454;180;919002;-60
2022/03/16 03:37:28;;;;;;;36.17;23.85;;;;;;;;;;769588;180;920195;-61
2022/03/16 03:39:52;;;;;;;33.70;24.23;;;;;;;;;;771491;179;917914;-60
2022/03/16 03:42:18;;;;;;;38.73;23.30;;;;;;;;;;769663;178;1021584;-60
2022/03/16 03:44:44;;;;;;;35.47;22.17;;;;;;;;;;775705;177;920987;-61
2022/03/16 03:47:10;;;;;;;34.70;22.05;;;;;;;;;;785242;178;919992;-60
2022/03/16 03:49:35;;;;;;;30.60;21.20;;;;;;;;;;773993;177;919688;-61
2022/03/16 03:52:01;;;;;;;34.83;22.90;;;;;;;;;;769435;179;919481;-60
2022/03/16 03:54:27;;;;;;;29.80;23.33;;;;;;;;;;771211;179;918679;-60
2022/03/16 03:56:53;;;;;;;28.47;21.10;;;;;;;;;;775253;179;919005;-60
2022/03/16 03:59:19;;;;;;;37.27;25.53;;;;;;;;;;771387;177;919546;-60
2022/03/16 04:01:45;;;;;;;43.60;25.43;;;;;;;;;;772712;177;963795;-61
2022/03/16 04:04:10;;;;;;;46.47;27.80;;;;;;;;;;779194;179;918658;-60
2022/03/16 04:06:36;;;;;;;29.90;21.70;;;;;;;;;;771568;179;918855;-61
2022/03/16 04:09:02;;;;;;;40.00;24.93;;;;;;;;;;771522;179;919462;-60
2022/03/16 04:11:28;;;;;;;41.67;30.67;;;;;;;;;;779907;179;919269;-60
2022/03/16 04:13:54;;;;;;;36.40;22.67;;;;;;;;;;773471;179;919483;-60
2022/03/16 04:16:20;;;;;;;44.47;29.57;;;;;;;;;;769562;179;958676;-61
2022/03/16 04:18:46;;;;;;;34.85;25.12;;;;;;;;;;774428;179;921121;-60
2022/03/16 04:21:13;;;;;;;42.97;27.07;;;;;;;;;;774279;180;915542;-60
2022/03/16 04:23:39;;;;;;;42.50;31.12;;;;;;;;;;764963;179;927916;-61
2022/03/16 04:26:04;;;;;;;45.47;28.70;;;;;;;;;;768501;178;919813;-60
2022/03/16 04:28:30;;;;;;;38.60;26.83;;;;;;;;;;772876;178;919618;-60
2022/03/16 04:30:56;;;;;;;41.77;30.93;;;;;;;;;;765797;179;920284;-61
2022/03/16 04:33:22;;;;;;;36.97;26.97;;;;;;;;;;775611;177;920688;-61
2022/03/16 04:35:48;;;;;;;41.40;27.17;;;;;;;;;;772244;180;918515;-61
2022/03/16 04:38:14;;;;;;;36.67;25.77;;;;;;;;;;770058;180;919075;-61
2022/03/16 04:40:40;;;;;;;40.63;28.77;;;;;;;;;;773460;177;919544;-61
2022/03/16 04:43:06;;;;;;;39.80;28.10;;;;;;;;;;779927;178;919106;-61
2022/03/16 04:45:32;;;;;;;44.33;29.03;;;;;;;;;;766191;182;918544;-60
2022/03/16 04:47:58;;;;;;;37.70;26.20;;;;;;;;;;780324;178;919663;-61
2022/03/16 04:50:23;;;;;;;51.00;30.50;;;;;;;;;;771635;178;919108;-60
2022/03/16 04:52:49;;;;;;;43.47;29.10;;;;;;;;;;773081;180;919535;-61
2022/03/16 04:55:15;;;;;;;45.30;30.43;;;;;;;;;;764624;180;918706;-61
2022/03/16 04:57:41;;;;;;;42.47;30.53;;;;;;;;;;769723;180;919199;-61
2022/03/16 05:00:07;;;;;;;55.77;35.43;;;;;;;;;;772971;179;919160;-60
2022/03/16 05:02:33;;;;;;;42.80;30.63;;;;;;;;;;768874;180;919300;-61
2022/03/16 05:04:59;;;;;;;55.53;33.37;;;;;;;;;;767985;182;921311;-61
2022/03/16 05:07:25;;;;;;;57.80;36.47;;;;;;;;;;764240;180;919766;-61
2022/03/16 05:09:51;;;;;;;43.63;30.87;;;;;;;;;;768748;177;919154;-61
2022/03/16 05:12:16;;;;;;;44.67;29.43;;;;;;;;;;776785;176;919320;-60
2022/03/16 05:14:42;;;;;;;46.83;30.80;;;;;;;;;;774363;179;919450;-61
2022/03/16 05:17:08;;;;;;;45.90;31.13;;;;;;;;;;773815;179;919720;-61
2022/03/16 05:19:34;;;;;;;49.97;31.67;;;;;;;;;;768402;180;919327;-61
2022/03/16 05:22:00;;;;;;;53.80;31.67;;;;;;;;;;768653;179;919798;-62
2022/03/16 05:24:26;;;;;;;45.60;28.67;;;;;;;;;;781884;177;920420;-61
2022/03/16 05:26:51;;;;;;;47.20;28.53;;;;;;;;;;775337;177;919339;-61
2022/03/16 05:29:17;;;;;;;67.28;34.47;;;;;;;;;;773103;179;918499;-60
2022/03/16 05:31:43;;;;;;;51.37;30.40;;;;;;;;;;766128;184;919637;-61
2022/03/16 05:34:09;;;;;;;51.83;31.10;;;;;;;;;;772738;180;919439;-61
2022/03/16 05:36:35;;;;;;;40.90;26.27;;;;;;;;;;769760;177;920849;-60
2022/03/16 05:39:01;;;;;;;50.93;30.07;;;;;;;;;;766056;179;917788;-60
2022/03/16 05:41:27;;;;;;;43.60;28.23;;;;;;;;;;771764;180;917093;-61
2022/03/16 05:43:53;;;;;;;37.10;23.40;;;;;;;;;;780325;176;916655;-61
2022/03/16 05:46:18;;;;;;;46.63;30.33;;;;;;;;;;768485;181;918488;-61
2022/03/16 05:48:44;;;;;;;45.03;29.27;;;;;;;;;;776457;180;917138;-61
2022/03/16 05:51:10;;;;;;;47.63;28.27;;;;;;;;;;769825;179;920491;-61
2022/03/16 05:53:36;;;;;;;47.03;29.60;;;;;;;;;;771805;179;921492;-61
2022/03/16 05:56:02;;;;;;;43.60;26.40;;;;;;;;;;774727;180;917509;-60
2022/03/16 05:58:28;;;;;;;38.47;24.67;;;;;;;;;;762840;179;916392;-61
2022/03/16 06:00:53;;;;;;;43.50;28.80;;;;;;;;;;773944;180;920819;-61
2022/03/16 06:03:19;;;;;;;40.53;26.27;;;;;;;;;;780295;180;917110;-62
2022/03/16 06:05:45;;;;;;;51.33;28.67;;;;;;;;;;782442;177;915323;-61
2022/03/16 06:08:11;;;;;;;39.00;24.27;;;;;;;;;;771551;179;922575;-62
2022/03/16 06:10:38;;;;;;;52.23;29.00;;;;;;;;;;765139;179;917408;-61
2022/03/16 06:13:03;;;;;;;40.90;27.10;;;;;;;;;;779016;179;916568;-61
2022/03/16 06:15:29;;;;;;;45.60;29.80;;;;;;;;;;771994;179;909620;-61
2022/03/16 06:17:54;;;;;;;43.50;25.87;;;;;;;;;;769582;180;919013;-62
2022/03/16 06:20:20;;;;;;;44.30;28.50;;;;;;;;;;782056;178;918717;-61
2022/03/16 06:22:46;;;;;;;50.50;28.80;;;;;;;;;;774764;179;919264;-61
2022/03/16 06:25:12;;;;;;;36.53;26.40;;;;;;;;;;777657;178;1022719;-62
2022/03/16 06:27:38;;;;;;;45.77;26.77;;;;;;;;;;775740;180;918767;-61
2022/03/16 06:30:04;;;;;;;44.20;28.97;;;;;;;;;;769043;180;918968;-60
2022/03/16 06:32:30;;;;;;;33.97;22.57;;;;;;;;;;772361;179;917890;-62
2022/03/16 06:34:56;;;;;;;33.27;23.77;;;;;;;;;;769172;180;918494;-61
2022/03/16 06:37:22;;;;;;;40.00;25.53;;;;;;;;;;782900;177;919095;-62
2022/03/16 06:39:48;;;;;;;42.40;25.60;;;;;;;;;;771362;180;1020743;-63
2022/03/16 06:42:13;;;;;;;42.85;28.08;;;;;;;;;;770044;179;920718;-63
2022/03/16 06:44:39;;;;;;;38.40;22.00;;;;;;;;;;774909;179;919144;-63
2022/03/16 06:47:05;;;;;;;35.28;23.42;;;;;;;;;;768513;179;920883;-59
2022/03/16 06:49:31;;;;;;;38.13;26.57;;;;;;;;;;768095;177;918182;-61
2022/03/16 06:51:57;;;;;;;36.83;23.67;;;;;;;;;;781986;179;919406;-61
2022/03/16 06:54:23;;;;;;;36.97;24.17;;;;;;;;;;769992;179;919315;-59
2022/03/16 06:56:49;;;;;;;41.13;24.23;;;;;;;;;;772804;179;1019943;-62
2022/03/16 06:59:15;;;;;;;45.30;29.03;;;;;;;;;;771552;179;912172;-61
2022/03/16 07:01:40;;;;;;;46.07;28.40;;;;;;;;;;768170;179;914112;-62
2022/03/16 07:04:06;;;;;;;41.77;24.70;;;;;;;;;;762098;179;914180;-62
2022/03/16 07:06:33;;;;;;;46.50;30.40;;;;;;;;;;769295;179;915503;-60
2022/03/16 07:08:59;;;;;;;32.27;17.57;;;;;;;;;;778197;180;915252;-62
2022/03/16 07:11:25;;;;;;;44.87;28.77;;;;;;;;;;769228;178;911853;-60
2022/03/16 07:16:22;;;;;;;47.20;24.70;;;;;;;;;;777626;178;919499;-60
2022/03/16 07:18:48;;;;;;;55.77;30.30;;;;;;;;;;778426;178;615155;-62
2022/03/16 07:21:14;;;;;;;50.60;27.20;;;;;;;;;;761800;180;918745;-61
2022/03/16 07:23:40;;;;;;;38.70;23.20;;;;;;;;;;770107;179;922529;-62
2022/03/16 07:26:06;;;;;;;43.87;28.27;;;;;;;;;;773451;180;916265;-62
2022/03/16 07:28:31;;;;;;;41.35;24.73;;;;;;;;;;780585;179;637662;-62
2022/03/16 07:30:57;;;;;;;51.37;30.43;;;;;;;;;;783895;180;618188;-61
2022/03/16 07:33:23;;;;;;;35.63;21.20;;;;;;;;;;782655;180;912930;-61
2022/03/16 07:35:49;;;;;;;41.90;29.25;;;;;;;;;;766384;180;914941;-62
2022/03/16 07:38:15;;;;;;;47.60;25.10;;;;;;;;;;770058;177;915657;-61
2022/03/16 07:40:41;;;;;;;47.27;29.63;;;;;;;;;;782882;177;914986;-61
2022/03/16 07:43:07;;;;;;;58.43;30.37;;;;;;;;;;768767;177;919529;-61
2022/03/16 07:45:33;;;;;;;47.10;30.20;;;;;;;;;;780061;179;919650;-62
2022/03/16 07:47:59;;;;;;;49.63;31.57;;;;;;;;;;778375;176;926895;-61
2022/03/16 07:50:25;;;;;;;44.93;26.47;;;;;;;;;;774712;179;919082;-61
2022/03/16 07:52:50;;;;;;;48.87;31.30;;;;;;;;;;768607;179;919538;-61
2022/03/16 07:55:16;;;;;;;45.70;29.63;;;;;;;;;;766547;178;1021569;-61
2022/03/16 07:57:43;;;;;;;50.33;34.40;;;;;;;;;;772950;181;919031;-61
2022/03/16 08:00:10;;;;;;;53.10;33.60;;;;;;;;;;778929;176;920271;-62
2022/03/16 08:02:34;;;;;;;48.93;31.33;;;;;;;;;;770241;178;919476;-60
2022/03/16 08:05:01;;;;;;;50.27;30.60;;;;;;;;;;781878;178;970737;-62
2022/03/16 08:07:26;;;;;;;44.80;29.70;;;;;;;;;;772222;177;1119131;-62
2022/03/16 08:09:52;;;;;;;47.83;26.80;;;;;;;;;;781635;178;922795;-62
2022/03/16 08:12:17;;;;;;;46.90;30.37;;;;;;;;;;777918;179;915911;-60
2022/03/16 08:14:43;;;;;;;31.73;19.57;;;;;;;;;;773407;179;914182;-61
2022/03/16 08:17:09;;;;;;;44.23;28.90;;;;;;;;;;768915;180;910913;-61
2022/03/16 08:19:37;;;;;;;43.93;28.80;;;;;;;;;;781491;177;919183;-60
2022/03/16 08:22:03;;;;;;;46.13;28.53;;;;;;;;;;781948;178;919314;-60
2022/03/16 08:24:28;;;;;;;43.23;28.60;;;;;;;;;;773228;178;919510;-62
2022/03/16 08:26:54;;;;;;;44.78;27.98;;;;;;;;;;771854;180;1020958;-61
2022/03/16 08:29:20;;;;;;;46.57;29.80;;;;;;;;;;776122;180;920066;-61
2022/03/16 08:31:46;;;;;;;52.30;28.40;;;;;;;;;;769746;178;939207;-62
2022/03/16 08:34:12;;;;;;;54.43;32.37;;;;;;;;;;767308;180;919228;-61
2022/03/16 08:36:39;;;;;;;54.73;34.97;;;;;;;;;;769953;180;919249;-60
2022/03/16 08:39:03;;;;;;;62.47;37.80;;;;;;;;;;772120;180;919539;-61
2022/03/16 08:41:32;;;;;;;53.50;34.03;;;;;;;;;;769275;180;919242;-60
2022/03/16 08:43:55;;;;;;;53.03;33.77;;;;;;;;;;768459;180;919572;-60
2022/03/16 08:46:21;;;;;;;49.00;32.20;;;;;;;;;;775419;180;919291;-60
2022/03/16 08:48:47;;;;;;;53.77;34.63;;;;;;;;;;768844;180;922277;-60
2022/03/16 08:51:13;;;;;;;43.40;31.07;;;;;;;;;;768081;179;919206;-60
2022/03/16 08:53:39;;;;;;;50.67;32.27;;;;;;;;;;773574;179;918959;-60
2022/03/16 08:56:04;;;;;;;46.37;30.83;;;;;;;;;;770033;179;920113;-60
2022/03/16 08:58:30;;;;;;;50.28;33.30;;;;;;;;;;769899;180;919157;-61
2022/03/16 09:00:56;;;;;;;57.00;35.13;;;;;;;;;;775852;180;920165;-61
2022/03/16 09:03:22;;;;;;;42.77;29.17;;;;;;;;;;768228;177;1124282;-61
2022/03/16 09:05:48;;;;;;;49.40;32.87;;;;;;;;;;768404;180;918983;-60
2022/03/16 09:08:14;;;;;;;51.23;34.43;;;;;;;;;;769320;180;920638;-60
2022/03/16 09:10:40;;;;;;;45.83;28.87;;;;;;;;;;775919;180;919101;-60
2022/03/16 09:13:06;;;;;;;50.07;29.90;;;;;;;;;;769767;180;919635;-60
2022/03/16 09:15:31;;;;;;;50.20;31.70;;;;;;;;;;768707;180;919437;-61
2022/03/16 09:17:57;;;;;;;48.13;30.80;;;;;;;;;;774586;180;919423;-62
2022/03/16 09:20:23;;;;;;;41.17;23.17;;;;;;;;;;774240;177;920202;-59
2022/03/16 09:22:49;;;;;;;45.90;28.70;;;;;;;;;;772024;178;919139;-61
2022/03/16 09:25:15;;;;;;;47.97;31.93;;;;;;;;;;776848;179;918993;-60
2022/03/16 09:27:40;;;;;;;49.73;24.53;;;;;;;;;;775810;179;916892;-60
2022/03/16 09:30:07;;;;;;;48.73;28.17;;;;;;;;;;776213;178;919257;-60
2022/03/16 09:32:34;;;;;;;48.10;30.67;;;;;;;;;;770507;179;1024891;-60
2022/03/16 09:34:59;;;;;;;50.43;31.43;;;;;;;;;;778660;179;923069;-60
2022/03/16 09:37:25;;;;;;;50.57;29.80;;;;;;;;;;766883;179;919493;-60
2022/03/16 09:39:51;;;;;;;46.20;26.40;;;;;;;;;;773058;179;917188;-61
2022/03/16 09:42:19;;;;;;;46.35;28.67;;;;;;;;;;776500;179;922022;-60
2022/03/16 09:44:43;;;;;;;51.87;30.40;;;;;;;;;;768682;180;918634;-60
2022/03/16 09:47:10;;;;;;;61.33;37.20;;;;;;;;;;769087;179;919067;-60
2022/03/16 09:49:36;;;;;;;53.00;32.40;;;;;;;;;;775444;179;918883;-60
2022/03/16 09:52:04;;;;;;;47.03;29.77;;;;;;;;;;777829;180;920113;-60
2022/03/16 09:54:28;;;;;;;52.40;30.83;;;;;;;;;;772408;180;919429;-60
2022/03/16 09:56:54;;;;;;;44.03;27.37;;;;;;;;;;771337;179;919178;-60
2022/03/16 09:59:21;;;;;;;43.90;24.27;;;;;;;;;;770962;180;919322;-60
2022/03/16 10:01:45;;;;;;;49.73;29.47;;;;;;;;;;773111;178;920142;-60
2022/03/16 10:04:11;;;;;;;50.90;28.25;;;;;;;;;;773566;178;919619;-60
2022/03/16 10:06:38;;;;;;;48.03;28.93;;;;;;;;;;780907;180;816095;-60
2022/03/16 10:14:14;;;;;;;40.77;25.20;;;;;;;;;;767130;179;919185;-61
2022/03/16 10:19:10;;;;;;;39.13;25.40;;;;;;;;;;771150;182;919471;-61
2022/03/16 10:21:36;;;;;;;43.20;29.30;;;;;;;;;;778879;177;629793;-61
2022/03/16 10:24:02;;;;;;;41.40;27.40;;;;;;;;;;784565;179;918898;-61
2022/03/16 10:26:28;;;;;;;43.13;28.08;;;;;;;;;;772816;179;920034;-61
2022/03/16 10:28:53;;;;;;;38.37;27.57;;;;;;;;;;769507;179;919682;-61
2022/03/16 10:31:19;;;;;;;43.90;28.07;;;;;;;;;;775039;179;917502;-62
2022/03/16 10:33:46;;;;;;;42.93;27.40;;;;;;;;;;779201;179;621486;-61
2022/03/16 10:36:13;;;;;;;36.83;27.00;;;;;;;;;;772797;179;919569;-62
2022/03/16 10:38:38;;;;;;;91.00;61.27;;;;;;;;;;773666;176;919595;-61
2022/03/16 10:46:34;;;;;;;59.80;38.00;;;;;;;;;;767834;180;919201;-62
2022/03/16 10:48:54;;;;;;;49.30;32.00;;;;;;;;;;775385;177;919558;-62
2022/03/16 10:51:20;;;;;;;47.57;33.00;;;;;;;;;;764229;179;920411;-62
2022/03/16 10:53:46;;;;;;;40.50;27.40;;;;;;;;;;774363;177;920447;-64
2022/03/16 10:56:16;;;;;;;35.67;26.67;;;;;;;;;;787564;176;919251;-61
2022/03/16 10:58:38;;;;;;;45.23;28.60;;;;;;;;;;779619;177;920730;-62
2022/03/16 11:01:04;;;;;;;42.03;26.43;;;;;;;;;;772697;177;919524;-62
2022/03/16 11:03:31;;;;;;;43.77;30.97;;;;;;;;;;777444;180;919336;-62
2022/03/16 11:05:56;;;;;;;36.67;24.50;;;;;;;;;;780261;177;818135;-61
2022/03/16 11:08:21;;;;;;;32.33;23.77;;;;;;;;;;773392;180;942253;-62
2022/03/16 11:10:47;;;;;;;53.10;37.03;;;;;;;;;;777330;179;920107;-61
2022/03/16 11:15:45;;;;;;;38.73;23.63;;;;;;;;;;774596;179;919397;-62
2022/03/16 11:18:11;;;;;;;44.40;29.40;;;;;;;;;;775885;179;919335;-62
2022/03/16 11:20:37;;;;;;;43.33;27.87;;;;;;;;;;768607;179;915905;-61
2022/03/16 11:25:51;;;;;;;39.20;27.03;;;;;;;;;;765807;179;914326;-61
2022/03/16 11:28:16;;;;;;;47.07;34.10;;;;;;;;;;765762;180;916325;-61
2022/03/16 11:30:42;;;;;;;39.43;27.77;;;;;;;;;;768809;180;915592;-62
2022/03/16 11:33:08;;;;;;;58.23;40.07;;;;;;;;;;784750;178;920087;-61
2022/03/16 11:35:33;;;;;;;49.00;28.03;;;;;;;;;;767154;179;919528;-60
2022/03/16 11:37:59;;;;;;;46.07;29.73;;;;;;;;;;772990;179;919258;-61
2022/03/16 11:40:25;;;;;;;49.10;32.40;;;;;;;;;;775033;179;918674;-60
2022/03/16 11:42:57;;;;;;;45.53;32.13;;;;;;;;;;771501;179;918788;-61
2022/03/16 11:45:35;;;;;;;65.47;41.83;;;;;;;;;;768455;180;919470;-60
2022/03/16 11:48:00;;;;;;;59.77;36.10;;;;;;;;;;769053;180;919714;-60
2022/03/16 11:50:28;;;;;;;56.40;34.20;;;;;;;;;;780997;177;919412;-61
2022/03/16 11:52:56;;;;;;;61.22;37.85;;;;;;;;;;777532;179;919992;-61
2022/03/16 11:55:27;;;;;;;62.07;39.63;;;;;;;;;;772765;180;919146;-60
2022/03/16 11:57:54;;;;;;;65.00;42.17;;;;;;;;;;776966;177;918880;-60
2022/03/16 12:00:20;;;;;;;65.93;42.87;;;;;;;;;;784427;177;920076;-60
2022/03/16 12:02:51;;;;;;;62.67;42.40;;;;;;;;;;779334;177;919447;-61
2022/03/16 12:05:19;;;;;;;87.50;49.70;;;;;;;;;;773216;178;922240;-60
2022/03/16 12:07:43;;;;;;;73.80;44.72;;;;;;;;;;772869;180;920489;-61
2022/03/16 12:10:10;;;;;;;82.20;52.03;;;;;;;;;;779715;180;918339;-60
2022/03/16 12:15:26;;;;;;;67.80;42.10;;;;;;;;;;782615;177;635126;-63
2022/03/16 12:18:11;;;;;;;101.23;59.23;;;;;;;;;;773374;177;1021904;-61
2022/03/16 12:20:36;;;;;;;106.97;63.27;;;;;;;;;;770741;180;919069;-62
2022/03/16 12:23:03;;;;;;;73.70;49.00;;;;;;;;;;771443;180;919629;-61
2022/03/16 12:25:29;;;;;;;69.80;46.60;;;;;;;;;;775312;180;916692;-61
2022/03/16 12:30:43;;;;;;;72.23;47.37;;;;;;;;;;770200;179;919830;-63
2022/03/16 12:33:10;;;;;;;76.15;48.83;;;;;;;;;;772648;179;922782;-62
2022/03/16 12:35:36;;;;;;;85.20;49.93;;;;;;;;;;775214;176;919998;-62
2022/03/16 12:38:01;;;;;;;86.70;55.07;;;;;;;;;;778546;179;919783;-62
2022/03/16 12:40:29;;;;;;;76.23;50.60;;;;;;;;;;767470;179;941030;-63
2022/03/16 12:42:56;;;;;;;74.60;49.73;;;;;;;;;;768555;180;920252;-62
2022/03/16 12:45:20;;;;;;;112.37;71.53;;;;;;;;;;776575;178;919323;-62
2022/03/16 12:47:46;;;;;;;89.20;58.70;;;;;;;;;;775290;177;918278;-63
2022/03/16 12:50:13;;;;;;;89.10;52.57;;;;;;;;;;773331;179;918125;-63
2022/03/16 12:52:40;;;;;;;92.10;52.60;;;;;;;;;;774840;179;918450;-61
2022/03/16 12:55:12;;;;;;;81.85;53.35;;;;;;;;;;768503;180;920334;-62
2022/03/16 12:57:38;;;;;;;88.77;55.93;;;;;;;;;;766920;180;930515;-62
2022/03/16 13:00:04;;;;;;;78.40;51.03;;;;;;;;;;768649;180;919427;-63
2022/03/16 13:02:31;;;;;;;83.00;51.60;;;;;;;;;;777552;179;919376;-62
2022/03/16 13:04:56;;;;;;;87.22;49.72;;;;;;;;;;778063;177;918598;-62
2022/03/16 13:07:21;;;;;;;90.13;53.97;;;;;;;;;;776047;179;919196;-62
2022/03/16 13:09:47;;;;;;;76.13;48.80;;;;;;;;;;776933;179;920104;-63
2022/03/16 13:12:15;;;;;;;85.00;48.17;;;;;;;;;;771527;179;919898;-62
2022/03/16 13:14:41;;;;;;;73.40;43.23;;;;;;;;;;772410;180;1033298;-61
2022/03/16 13:17:06;;;;;;;72.00;46.90;;;;;;;;;;769062;180;921484;-61
2022/03/16 13:19:32;;;;;;;80.43;48.33;;;;;;;;;;777113;179;921142;-61
2022/03/16 13:22:05;;;;;;;70.70;44.07;;;;;;;;;;772160;179;919735;-62
2022/03/16 13:24:41;;;;;;;77.73;50.57;;;;;;;;;;769484;179;918784;-63
2022/03/16 13:27:06;;;;;;;74.90;46.77;;;;;;;;;;769440;179;1020080;-63
2022/03/16 13:29:33;;;;;;;75.85;48.85;;;;;;;;;;776084;180;920877;-62
2022/03/16 13:31:58;;;;;;;71.23;45.07;;;;;;;;;;776614;177;920657;-63
2022/03/16 13:34:26;;;;;;;74.23;42.20;;;;;;;;;;775518;179;920826;-63
2022/03/16 13:36:51;;;;;;;66.12;44.50;;;;;;;;;;773948;179;919704;-63
2022/03/16 13:39:17;;;;;;;64.87;44.60;;;;;;;;;;778298;179;919764;-63
2022/03/16 13:42:04;;;;;;;69.20;47.13;;;;;;;;;;769822;179;918703;-63
2022/03/16 13:44:15;;;;;;;56.27;36.80;;;;;;;;;;764540;179;916255;-63
2022/03/16 13:46:41;;;;;;;75.90;42.10;;;;;;;;;;774139;179;920136;-63
2022/03/16 13:49:07;;;;;;;63.30;41.93;;;;;;;;;;780388;177;920087;-63
2022/03/16 13:51:34;;;;;;;65.90;39.30;;;;;;;;;;772826;179;926255;-63
2022/03/16 13:54:00;;;;;;;82.27;41.90;;;;;;;;;;773308;179;911937;-63
2022/03/16 13:56:25;;;;;;;61.40;41.03;;;;;;;;;;764392;180;919400;-65
2022/03/16 13:58:53;;;;;;;60.13;41.00;;;;;;;;;;769501;180;918853;-64
2022/03/16 14:01:18;;;;;;;68.30;42.40;;;;;;;;;;770984;180;918077;-64
2022/03/16 14:03:44;;;;;;;63.07;39.47;;;;;;;;;;781680;179;901678;-63
2022/03/16 14:06:10;;;;;;;60.90;39.23;;;;;;;;;;768976;179;921066;-68
2022/03/16 14:08:36;;;;;;;53.43;36.10;;;;;;;;;;769962;179;919221;-63
2022/03/16 14:11:02;;;;;;;55.63;38.13;;;;;;;;;;774452;179;1329062;-63
2022/03/16 14:13:29;;;;;;;56.40;38.47;;;;;;;;;;778239;178;919008;-64
2022/03/16 14:16:00;;;;;;;59.37;38.37;;;;;;;;;;779423;179;918339;-63
2022/03/16 14:18:25;;;;;;;59.60;40.40;;;;;;;;;;774476;180;918775;-63
2022/03/16 14:20:55;;;;;;;64.27;41.80;;;;;;;;;;778986;179;918494;-63
2022/03/16 14:23:19;;;;;;;64.95;41.20;;;;;;;;;;770662;179;919465;-63
2022/03/16 14:25:48;;;;;;;61.03;40.00;;;;;;;;;;779345;177;928877;-66